sensor_id;sensor_type;location;lat;lon;timestamp;temperature;humidity
41471;DHT22;27211;51.220;5.308;2024-02-15T00:01:10;13.40;99.90
41471;DHT22;27211;51.220;5.308;2024-02-15T00:03:36;13.30;99.90
41471;DHT22;27211;51.220;5.308;2024-02-15T00:06:03;13.40;99.90
41471;DHT22;27211;51.220;5.308;2024-02-15T00:08:29;13.30;99.90
41471;DHT22;27211;51.220;5.308;2024-02-15T00:10:55;13.40;99.90
41471;DHT22;27211;51.220;5.308;2024-02-15T00:13:21;13.30;99.90
41471;DHT22;27211;51.220;5.308;2024-02-15T00:15:48;13.40;99.90
41471;DHT22;27211;51.220;5.308;2024-02-15T00:18:14;13.40;99.90
41471;DHT22;27211;51.220;5.308;2024-02-15T00:20:40;13.20;99.90
41471;DHT22;27211;51.220;5.308;2024-02-15T00:23:05;13.30;99.90
41471;DHT22;27211;51.220;5.308;2024-02-15T00:25:32;13.20;99.90
41471;DHT22;27211;51.220;5.308;2024-02-15T00:27:57;13.20;99.90
41471;DHT22;27211;51.220;5.308;2024-02-15T00:30:25;13.30;99.90
41471;DHT22;27211;51.220;5.308;2024-02-15T00:32:52;13.50;99.90
41471;DHT22;27211;51.220;5.308;2024-02-15T00:35:18;13.50;99.90
41471;DHT22;27211;51.220;5.308;2024-02-15T00:37:44;13.50;99.90
41471;DHT22;27211;51.220;5.308;2024-02-15T00:40:10;13.40;99.90
41471;DHT22;27211;51.220;5.308;2024-02-15T00:42:36;13.30;99.90
41471;DHT22;27211;51.220;5.308;2024-02-15T00:45:02;13.40;99.90
41471;DHT22;27211;51.220;5.308;2024-02-15T00:47:28;13.40;99.90
41471;DHT22;27211;51.220;5.308;2024-02-15T00:49:54;13.50;99.90
41471;DHT22;27211;51.220;5.308;2024-02-15T00:52:19;13.50;99.90
41471;DHT22;27211;51.220;5.308;2024-02-15T00:54:48;13.50;99.90
41471;DHT22;27211;51.220;5.308;2024-02-15T00:57:13;13.50;99.90
41471;DHT22;27211;51.220;5.308;2024-02-15T00:59:39;13.40;99.90
41471;DHT22;27211;51.220;5.308;2024-02-15T01:02:05;13.40;99.90
41471;DHT22;27211;51.220;5.308;2024-02-15T01:04:33;13.30;99.90
41471;DHT22;27211;51.220;5.308;2024-02-15T01:06:59;13.30;99.90
41471;DHT22;27211;51.220;5.308;2024-02-15T01:09:25;13.40;99.90
41471;DHT22;27211;51.220;5.308;2024-02-15T01:11:51;13.50;99.90
41471;DHT22;27211;51.220;5.308;2024-02-15T01:14:16;13.50;99.90
41471;DHT22;27211;51.220;5.308;2024-02-15T01:16:42;13.50;99.90
41471;DHT22;27211;51.220;5.308;2024-02-15T01:19:08;13.50;99.90
41471;DHT22;27211;51.220;5.308;2024-02-15T01:21:34;13.60;99.90
41471;DHT22;27211;51.220;5.308;2024-02-15T01:24:00;13.50;99.90
41471;DHT22;27211;51.220;5.308;2024-02-15T01:26:32;13.50;99.90
41471;DHT22;27211;51.220;5.308;2024-02-15T01:28:57;13.40;99.90
41471;DHT22;27211;51.220;5.308;2024-02-15T01:31:23;13.50;99.90
41471;DHT22;27211;51.220;5.308;2024-02-15T01:33:48;13.50;99.90
41471;DHT22;27211;51.220;5.308;2024-02-15T01:36:17;13.40;99.90
41471;DHT22;27211;51.220;5.308;2024-02-15T01:38:43;13.50;99.90
41471;DHT22;27211;51.220;5.308;2024-02-15T01:41:09;13.50;99.90
41471;DHT22;27211;51.220;5.308;2024-02-15T01:43:37;13.50;99.90
41471;DHT22;27211;51.220;5.308;2024-02-15T01:46:09;13.30;99.90
41471;DHT22;27211;51.220;5.308;2024-02-15T01:48:35;13.20;99.90
41471;DHT22;27211;51.220;5.308;2024-02-15T01:51:01;13.20;99.90
41471;DHT22;27211;51.220;5.308;2024-02-15T01:53:29;13.40;99.90
41471;DHT22;27211;51.220;5.308;2024-02-15T01:55:56;13.30;99.90
41471;DHT22;27211;51.220;5.308;2024-02-15T01:58:23;13.20;99.90
41471;DHT22;27211;51.220;5.308;2024-02-15T02:00:49;13.00;99.90
41471;DHT22;27211;51.220;5.308;2024-02-15T02:03:15;13.00;99.90
41471;DHT22;27211;51.220;5.308;2024-02-15T02:05:42;13.20;99.90
41471;DHT22;27211;51.220;5.308;2024-02-15T02:08:07;13.10;99.90
41471;DHT22;27211;51.220;5.308;2024-02-15T02:10:38;13.20;99.90
41471;DHT22;27211;51.220;5.308;2024-02-15T02:13:04;13.20;99.90
41471;DHT22;27211;51.220;5.308;2024-02-15T02:15:31;13.10;99.90
41471;DHT22;27211;51.220;5.308;2024-02-15T02:17:57;13.20;99.90
41471;DHT22;27211;51.220;5.308;2024-02-15T02:20:25;13.30;99.90
41471;DHT22;27211;51.220;5.308;2024-02-15T02:22:50;13.20;99.90
41471;DHT22;27211;51.220;5.308;2024-02-15T02:25:19;13.20;99.90
41471;DHT22;27211;51.220;5.308;2024-02-15T02:27:45;13.20;99.90
41471;DHT22;27211;51.220;5.308;2024-02-15T02:30:13;13.20;99.90
41471;DHT22;27211;51.220;5.308;2024-02-15T02:32:47;13.30;99.90
41471;DHT22;27211;51.220;5.308;2024-02-15T02:35:13;13.20;99.90
41471;DHT22;27211;51.220;5.308;2024-02-15T02:37:41;13.20;99.90
41471;DHT22;27211;51.220;5.308;2024-02-15T02:40:07;13.30;99.90
41471;DHT22;27211;51.220;5.308;2024-02-15T02:45:19;13.20;99.90
41471;DHT22;27211;51.220;5.308;2024-02-15T02:47:45;13.40;99.90
41471;DHT22;27211;51.220;5.308;2024-02-15T02:50:12;13.30;99.90
41471;DHT22;27211;51.220;5.308;2024-02-15T02:52:38;13.40;99.90
41471;DHT22;27211;51.220;5.308;2024-02-15T02:55:04;13.30;99.90
41471;DHT22;27211;51.220;5.308;2024-02-15T02:57:34;13.30;99.90
41471;DHT22;27211;51.220;5.308;2024-02-15T03:00:01;13.40;99.90
41471;DHT22;27211;51.220;5.308;2024-02-15T03:02:29;13.30;99.90
41471;DHT22;27211;51.220;5.308;2024-02-15T03:04:55;13.30;99.90
41471;DHT22;27211;51.220;5.308;2024-02-15T03:07:24;13.40;99.90
41471;DHT22;27211;51.220;5.308;2024-02-15T03:09:50;13.40;99.90
41471;DHT22;27211;51.220;5.308;2024-02-15T03:12:16;13.40;99.90
41471;DHT22;27211;51.220;5.308;2024-02-15T03:14:46;13.40;99.90
41471;DHT22;27211;51.220;5.308;2024-02-15T03:17:11;13.40;99.90
41471;DHT22;27211;51.220;5.308;2024-02-15T03:19:37;13.50;99.90
41471;DHT22;27211;51.220;5.308;2024-02-15T03:22:03;13.60;99.90
41471;DHT22;27211;51.220;5.308;2024-02-15T03:24:28;13.50;99.90
41471;DHT22;27211;51.220;5.308;2024-02-15T03:26:54;13.40;99.90
41471;DHT22;27211;51.220;5.308;2024-02-15T03:29:20;13.40;99.90
41471;DHT22;27211;51.220;5.308;2024-02-15T03:31:47;13.30;99.90
41471;DHT22;27211;51.220;5.308;2024-02-15T03:34:13;13.40;99.90
41471;DHT22;27211;51.220;5.308;2024-02-15T03:36:41;13.40;99.90
41471;DHT22;27211;51.220;5.308;2024-02-15T03:39:06;13.30;99.90
41471;DHT22;27211;51.220;5.308;2024-02-15T03:41:33;13.30;99.90
41471;DHT22;27211;51.220;5.308;2024-02-15T03:43:59;13.20;99.90
41471;DHT22;27211;51.220;5.308;2024-02-15T03:46:25;13.30;99.90
41471;DHT22;27211;51.220;5.308;2024-02-15T03:48:51;13.30;99.90
41471;DHT22;27211;51.220;5.308;2024-02-15T03:51:17;13.20;99.90
41471;DHT22;27211;51.220;5.308;2024-02-15T03:53:48;13.20;99.90
41471;DHT22;27211;51.220;5.308;2024-02-15T03:56:14;13.10;99.90
41471;DHT22;27211;51.220;5.308;2024-02-15T03:58:39;13.00;99.90
41471;DHT22;27211;51.220;5.308;2024-02-15T04:01:05;13.10;99.90
41471;DHT22;27211;51.220;5.308;2024-02-15T04:03:32;13.00;99.90
41471;DHT22;27211;51.220;5.308;2024-02-15T04:06:00;12.90;99.90
41471;DHT22;27211;51.220;5.308;2024-02-15T04:08:26;12.90;99.90
41471;DHT22;27211;51.220;5.308;2024-02-15T04:10:52;13.00;99.90
41471;DHT22;27211;51.220;5.308;2024-02-15T04:13:17;12.90;99.90
41471;DHT22;27211;51.220;5.308;2024-02-15T04:15:43;12.90;99.90
41471;DHT22;27211;51.220;5.308;2024-02-15T04:18:09;12.80;99.90
41471;DHT22;27211;51.220;5.308;2024-02-15T04:20:36;12.80;99.90
41471;DHT22;27211;51.220;5.308;2024-02-15T04:23:02;12.80;99.90
41471;DHT22;27211;51.220;5.308;2024-02-15T04:25:27;12.70;99.90
41471;DHT22;27211;51.220;5.308;2024-02-15T04:27:53;12.80;99.90
41471;DHT22;27211;51.220;5.308;2024-02-15T04:30:18;12.80;99.90
41471;DHT22;27211;51.220;5.308;2024-02-15T04:32:45;12.90;99.90
41471;DHT22;27211;51.220;5.308;2024-02-15T04:35:12;12.90;99.90
41471;DHT22;27211;51.220;5.308;2024-02-15T04:37:37;12.90;99.90
41471;DHT22;27211;51.220;5.308;2024-02-15T04:40:03;12.90;99.90
41471;DHT22;27211;51.220;5.308;2024-02-15T04:42:35;12.90;99.90
41471;DHT22;27211;51.220;5.308;2024-02-15T04:45:04;12.70;99.90
41471;DHT22;27211;51.220;5.308;2024-02-15T04:47:34;12.80;99.90
41471;DHT22;27211;51.220;5.308;2024-02-15T04:49:59;12.80;99.90
41471;DHT22;27211;51.220;5.308;2024-02-15T04:52:25;13.00;99.90
41471;DHT22;27211;51.220;5.308;2024-02-15T04:54:51;13.00;99.90
41471;DHT22;27211;51.220;5.308;2024-02-15T04:57:19;13.00;99.90
41471;DHT22;27211;51.220;5.308;2024-02-15T04:59:44;12.90;99.90
41471;DHT22;27211;51.220;5.308;2024-02-15T05:02:12;12.90;99.90
41471;DHT22;27211;51.220;5.308;2024-02-15T05:04:38;13.00;99.90
41471;DHT22;27211;51.220;5.308;2024-02-15T05:07:08;13.10;99.90
41471;DHT22;27211;51.220;5.308;2024-02-15T05:09:33;13.10;99.90
41471;DHT22;27211;51.220;5.308;2024-02-15T05:12:00;13.10;99.90
41471;DHT22;27211;51.220;5.308;2024-02-15T05:14:27;12.90;99.90
41471;DHT22;27211;51.220;5.308;2024-02-15T05:16:53;12.90;99.90
41471;DHT22;27211;51.220;5.308;2024-02-15T05:19:19;13.00;99.90
41471;DHT22;27211;51.220;5.308;2024-02-15T05:21:45;13.10;99.90
41471;DHT22;27211;51.220;5.308;2024-02-15T05:24:14;13.00;99.90
41471;DHT22;27211;51.220;5.308;2024-02-15T05:26:43;13.00;99.90
41471;DHT22;27211;51.220;5.308;2024-02-15T05:29:12;13.10;99.90
41471;DHT22;27211;51.220;5.308;2024-02-15T05:31:37;13.00;99.90
41471;DHT22;27211;51.220;5.308;2024-02-15T05:34:04;13.00;99.90
41471;DHT22;27211;51.220;5.308;2024-02-15T05:36:30;13.00;99.90
41471;DHT22;27211;51.220;5.308;2024-02-15T05:38:56;13.00;99.90
41471;DHT22;27211;51.220;5.308;2024-02-15T05:41:23;12.80;99.90
41471;DHT22;27211;51.220;5.308;2024-02-15T05:43:49;12.70;99.90
41471;DHT22;27211;51.220;5.308;2024-02-15T05:46:17;12.90;99.90
41471;DHT22;27211;51.220;5.308;2024-02-15T05:48:43;13.00;99.90
41471;DHT22;27211;51.220;5.308;2024-02-15T05:51:08;13.00;99.90
41471;DHT22;27211;51.220;5.308;2024-02-15T05:53:34;12.90;99.90
41471;DHT22;27211;51.220;5.308;2024-02-15T05:56:03;12.90;99.90
41471;DHT22;27211;51.220;5.308;2024-02-15T05:58:32;12.80;99.90
41471;DHT22;27211;51.220;5.308;2024-02-15T06:00:58;12.80;99.90
41471;DHT22;27211;51.220;5.308;2024-02-15T06:03:30;12.70;99.90
41471;DHT22;27211;51.220;5.308;2024-02-15T06:05:57;12.90;99.90
41471;DHT22;27211;51.220;5.308;2024-02-15T06:08:27;12.90;99.90
41471;DHT22;27211;51.220;5.308;2024-02-15T06:10:52;12.90;99.90
41471;DHT22;27211;51.220;5.308;2024-02-15T06:13:22;12.80;99.90
41471;DHT22;27211;51.220;5.308;2024-02-15T06:15:47;12.80;99.90
41471;DHT22;27211;51.220;5.308;2024-02-15T06:18:21;12.70;99.90
41471;DHT22;27211;51.220;5.308;2024-02-15T06:20:47;12.50;99.90
41471;DHT22;27211;51.220;5.308;2024-02-15T06:23:16;12.50;99.90
41471;DHT22;27211;51.220;5.308;2024-02-15T06:25:42;12.60;99.90
41471;DHT22;27211;51.220;5.308;2024-02-15T06:28:08;12.50;99.90
41471;DHT22;27211;51.220;5.308;2024-02-15T06:30:59;12.70;99.90
41471;DHT22;27211;51.220;5.308;2024-02-15T06:33:44;12.90;99.90
41471;DHT22;27211;51.220;5.308;2024-02-15T06:36:28;13.00;99.90
41471;DHT22;27211;51.220;5.308;2024-02-15T06:39:11;13.10;99.90
41471;DHT22;27211;51.220;5.308;2024-02-15T06:41:55;12.80;99.90
41471;DHT22;27211;51.220;5.308;2024-02-15T06:44:21;12.80;99.90
41471;DHT22;27211;51.220;5.308;2024-02-15T06:46:49;12.90;99.90
41471;DHT22;27211;51.220;5.308;2024-02-15T06:49:15;12.90;99.90
41471;DHT22;27211;51.220;5.308;2024-02-15T06:51:41;12.70;99.90
41471;DHT22;27211;51.220;5.308;2024-02-15T06:54:07;12.70;99.90
41471;DHT22;27211;51.220;5.308;2024-02-15T06:56:36;12.80;99.90
41471;DHT22;27211;51.220;5.308;2024-02-15T06:59:02;12.80;99.90
41471;DHT22;27211;51.220;5.308;2024-02-15T07:01:28;12.70;99.90
41471;DHT22;27211;51.220;5.308;2024-02-15T07:03:54;12.70;99.90
41471;DHT22;27211;51.220;5.308;2024-02-15T07:06:21;12.60;99.90
41471;DHT22;27211;51.220;5.308;2024-02-15T07:08:47;12.80;99.90
41471;DHT22;27211;51.220;5.308;2024-02-15T07:11:13;12.90;99.90
41471;DHT22;27211;51.220;5.308;2024-02-15T07:13:38;12.90;99.90
41471;DHT22;27211;51.220;5.308;2024-02-15T07:16:07;13.10;99.90
41471;DHT22;27211;51.220;5.308;2024-02-15T07:18:33;13.00;99.90
41471;DHT22;27211;51.220;5.308;2024-02-15T07:20:59;12.80;99.90
41471;DHT22;27211;51.220;5.308;2024-02-15T07:23:26;12.90;99.90
41471;DHT22;27211;51.220;5.308;2024-02-15T07:25:52;13.10;99.90
41471;DHT22;27211;51.220;5.308;2024-02-15T07:28:19;13.10;99.90
41471;DHT22;27211;51.220;5.308;2024-02-15T07:30:46;13.00;99.90
41471;DHT22;27211;51.220;5.308;2024-02-15T07:33:14;12.70;99.90
41471;DHT22;27211;51.220;5.308;2024-02-15T07:35:41;12.50;99.90
41471;DHT22;27211;51.220;5.308;2024-02-15T07:38:08;12.50;99.90
41471;DHT22;27211;51.220;5.308;2024-02-15T07:40:34;12.70;99.90
41471;DHT22;27211;51.220;5.308;2024-02-15T07:42:59;12.80;99.90
41471;DHT22;27211;51.220;5.308;2024-02-15T07:45:25;12.90;99.90
41471;DHT22;27211;51.220;5.308;2024-02-15T07:47:51;13.00;99.90
41471;DHT22;27211;51.220;5.308;2024-02-15T07:50:18;13.00;99.90
41471;DHT22;27211;51.220;5.308;2024-02-15T07:52:48;13.00;99.90
41471;DHT22;27211;51.220;5.308;2024-02-15T07:55:14;13.00;99.90
41471;DHT22;27211;51.220;5.308;2024-02-15T07:57:40;13.00;99.90
41471;DHT22;27211;51.220;5.308;2024-02-15T08:00:06;13.10;99.90
41471;DHT22;27211;51.220;5.308;2024-02-15T08:02:39;13.10;99.90
41471;DHT22;27211;51.220;5.308;2024-02-15T08:05:09;13.00;99.90
41471;DHT22;27211;51.220;5.308;2024-02-15T08:07:41;13.10;99.90
41471;DHT22;27211;51.220;5.308;2024-02-15T08:10:06;13.10;99.90
41471;DHT22;27211;51.220;5.308;2024-02-15T08:12:44;13.10;99.90
41471;DHT22;27211;51.220;5.308;2024-02-15T08:15:10;13.20;99.90
41471;DHT22;27211;51.220;5.308;2024-02-15T08:20:15;13.00;99.90
41471;DHT22;27211;51.220;5.308;2024-02-15T08:22:46;13.20;99.90
41471;DHT22;27211;51.220;5.308;2024-02-15T08:25:12;13.20;99.90
41471;DHT22;27211;51.220;5.308;2024-02-15T08:27:39;13.40;99.90
41471;DHT22;27211;51.220;5.308;2024-02-15T08:30:09;13.20;99.90
41471;DHT22;27211;51.220;5.308;2024-02-15T08:32:36;13.30;99.90
41471;DHT22;27211;51.220;5.308;2024-02-15T08:35:02;13.30;99.90
41471;DHT22;27211;51.220;5.308;2024-02-15T08:37:30;13.40;99.90
41471;DHT22;27211;51.220;5.308;2024-02-15T08:39:57;13.30;99.90
41471;DHT22;27211;51.220;5.308;2024-02-15T08:42:24;13.40;99.90
41471;DHT22;27211;51.220;5.308;2024-02-15T08:44:50;13.60;99.90
41471;DHT22;27211;51.220;5.308;2024-02-15T08:47:15;13.60;99.90
41471;DHT22;27211;51.220;5.308;2024-02-15T08:49:41;13.60;99.90
41471;DHT22;27211;51.220;5.308;2024-02-15T08:52:06;13.70;99.90
41471;DHT22;27211;51.220;5.308;2024-02-15T08:54:33;13.70;99.90
41471;DHT22;27211;51.220;5.308;2024-02-15T08:56:58;13.80;99.90
41471;DHT22;27211;51.220;5.308;2024-02-15T08:59:24;13.80;99.90
41471;DHT22;27211;51.220;5.308;2024-02-15T09:01:50;13.60;99.90
41471;DHT22;27211;51.220;5.308;2024-02-15T09:04:16;13.60;99.90
41471;DHT22;27211;51.220;5.308;2024-02-15T09:06:41;13.50;99.90
41471;DHT22;27211;51.220;5.308;2024-02-15T09:09:08;13.60;99.90
41471;DHT22;27211;51.220;5.308;2024-02-15T09:11:33;13.50;99.90
41471;DHT22;27211;51.220;5.308;2024-02-15T09:14:00;13.60;99.90
41471;DHT22;27211;51.220;5.308;2024-02-15T09:16:25;13.80;99.90
41471;DHT22;27211;51.220;5.308;2024-02-15T09:18:51;13.90;99.90
41471;DHT22;27211;51.220;5.308;2024-02-15T09:21:16;13.90;99.90
41471;DHT22;27211;51.220;5.308;2024-02-15T09:23:42;13.90;99.90
41471;DHT22;27211;51.220;5.308;2024-02-15T09:26:07;14.00;99.90
41471;DHT22;27211;51.220;5.308;2024-02-15T09:28:35;14.10;99.90
41471;DHT22;27211;51.220;5.308;2024-02-15T09:31:01;14.00;99.90
41471;DHT22;27211;51.220;5.308;2024-02-15T09:33:27;14.10;99.90
41471;DHT22;27211;51.220;5.308;2024-02-15T09:35:52;14.00;99.90
41471;DHT22;27211;51.220;5.308;2024-02-15T09:38:20;14.30;99.90
41471;DHT22;27211;51.220;5.308;2024-02-15T09:40:50;14.40;99.90
41471;DHT22;27211;51.220;5.308;2024-02-15T09:43:15;14.40;99.90
41471;DHT22;27211;51.220;5.308;2024-02-15T09:45:41;14.40;99.90
41471;DHT22;27211;51.220;5.308;2024-02-15T09:48:07;14.50;99.90
41471;DHT22;27211;51.220;5.308;2024-02-15T09:50:35;14.60;99.90
41471;DHT22;27211;51.220;5.308;2024-02-15T09:53:01;14.70;99.90
41471;DHT22;27211;51.220;5.308;2024-02-15T09:55:28;14.70;99.90
41471;DHT22;27211;51.220;5.308;2024-02-15T09:57:54;14.80;99.90
41471;DHT22;27211;51.220;5.308;2024-02-15T10:00:20;14.80;99.90
41471;DHT22;27211;51.220;5.308;2024-02-15T10:02:52;15.10;99.90
41471;DHT22;27211;51.220;5.308;2024-02-15T10:05:18;15.40;99.90
41471;DHT22;27211;51.220;5.308;2024-02-15T10:07:44;15.90;99.90
41471;DHT22;27211;51.220;5.308;2024-02-15T10:12:45;16.30;99.90
41471;DHT22;27211;51.220;5.308;2024-02-15T10:15:36;16.40;99.90
41471;DHT22;27211;51.220;5.308;2024-02-15T10:18:01;16.40;99.90
41471;DHT22;27211;51.220;5.308;2024-02-15T10:20:27;16.60;99.90
41471;DHT22;27211;51.220;5.308;2024-02-15T10:22:53;16.60;99.90
41471;DHT22;27211;51.220;5.308;2024-02-15T10:25:20;16.70;99.90
41471;DHT22;27211;51.220;5.308;2024-02-15T10:27:45;16.50;99.90
41471;DHT22;27211;51.220;5.308;2024-02-15T10:30:18;16.70;99.90
41471;DHT22;27211;51.220;5.308;2024-02-15T10:32:45;16.60;99.90
41471;DHT22;27211;51.220;5.308;2024-02-15T10:35:18;16.50;99.90
41471;DHT22;27211;51.220;5.308;2024-02-15T10:37:44;16.30;99.90
41471;DHT22;27211;51.220;5.308;2024-02-15T10:40:09;16.50;99.90
41471;DHT22;27211;51.220;5.308;2024-02-15T10:42:40;16.60;99.90
41471;DHT22;27211;51.220;5.308;2024-02-15T10:45:06;16.60;99.90
41471;DHT22;27211;51.220;5.308;2024-02-15T10:47:37;16.50;99.90
41471;DHT22;27211;51.220;5.308;2024-02-15T10:50:02;16.60;99.90
41471;DHT22;27211;51.220;5.308;2024-02-15T10:52:30;16.80;99.90
41471;DHT22;27211;51.220;5.308;2024-02-15T10:54:59;17.10;99.90
41471;DHT22;27211;51.220;5.308;2024-02-15T10:57:28;17.10;99.90
41471;DHT22;27211;51.220;5.308;2024-02-15T10:59:57;17.10;99.90
41471;DHT22;27211;51.220;5.308;2024-02-15T11:04:53;16.90;99.90
41471;DHT22;27211;51.220;5.308;2024-02-15T11:07:25;16.80;99.90
41471;DHT22;27211;51.220;5.308;2024-02-15T11:09:54;16.80;99.90
41471;DHT22;27211;51.220;5.308;2024-02-15T11:12:24;17.10;99.90
41471;DHT22;27211;51.220;5.308;2024-02-15T11:14:52;17.10;99.90
41471;DHT22;27211;51.220;5.308;2024-02-15T11:20:03;17.20;99.90
41471;DHT22;27211;51.220;5.308;2024-02-15T11:22:33;17.10;99.90
41471;DHT22;27211;51.220;5.308;2024-02-15T11:25:02;17.20;99.90
41471;DHT22;27211;51.220;5.308;2024-02-15T11:27:34;17.50;99.90
41471;DHT22;27211;51.220;5.308;2024-02-15T11:30:02;17.50;99.90
41471;DHT22;27211;51.220;5.308;2024-02-15T11:32:46;17.50;99.90
41471;DHT22;27211;51.220;5.308;2024-02-15T11:35:22;17.30;99.90
41471;DHT22;27211;51.220;5.308;2024-02-15T11:40:18;17.60;99.90
41471;DHT22;27211;51.220;5.308;2024-02-15T11:42:44;17.70;99.90
41471;DHT22;27211;51.220;5.308;2024-02-15T11:45:11;17.70;99.90
41471;DHT22;27211;51.220;5.308;2024-02-15T11:47:38;17.70;99.90
41471;DHT22;27211;51.220;5.308;2024-02-15T11:50:08;17.60;99.90
41471;DHT22;27211;51.220;5.308;2024-02-15T11:52:40;17.60;99.90
41471;DHT22;27211;51.220;5.308;2024-02-15T11:55:08;17.70;99.90
41471;DHT22;27211;51.220;5.308;2024-02-15T11:57:38;17.80;99.90
41471;DHT22;27211;51.220;5.308;2024-02-15T12:03:03;18.40;99.90
41471;DHT22;27211;51.220;5.308;2024-02-15T12:05:49;18.50;99.90
41471;DHT22;27211;51.220;5.308;2024-02-15T12:08:33;18.30;99.90
41471;DHT22;27211;51.220;5.308;2024-02-15T12:11:17;17.90;99.90
41471;DHT22;27211;51.220;5.308;2024-02-15T12:14:01;18.20;99.90
41471;DHT22;27211;51.220;5.308;2024-02-15T12:16:46;18.40;99.90
41471;DHT22;27211;51.220;5.308;2024-02-15T12:19:30;18.60;99.90
41471;DHT22;27211;51.220;5.308;2024-02-15T12:21:56;18.20;99.90
41471;DHT22;27211;51.220;5.308;2024-02-15T12:24:22;18.30;99.90
41471;DHT22;27211;51.220;5.308;2024-02-15T12:26:58;18.40;99.90
41471;DHT22;27211;51.220;5.308;2024-02-15T12:29:25;18.70;99.90
41471;DHT22;27211;51.220;5.308;2024-02-15T12:31:50;19.00;99.90
41471;DHT22;27211;51.220;5.308;2024-02-15T12:34:16;19.00;99.90
41471;DHT22;27211;51.220;5.308;2024-02-15T12:36:45;19.10;99.90
41471;DHT22;27211;51.220;5.308;2024-02-15T12:39:11;19.00;99.90
41471;DHT22;27211;51.220;5.308;2024-02-15T12:41:47;18.90;99.90
41471;DHT22;27211;51.220;5.308;2024-02-15T12:44:16;18.80;99.90
41471;DHT22;27211;51.220;5.308;2024-02-15T12:46:43;18.80;99.90
41471;DHT22;27211;51.220;5.308;2024-02-15T12:49:27;19.00;99.90
41471;DHT22;27211;51.220;5.308;2024-02-15T12:51:53;19.10;99.90
41471;DHT22;27211;51.220;5.308;2024-02-15T12:54:20;19.80;99.90
41471;DHT22;27211;51.220;5.308;2024-02-15T12:56:49;20.30;99.90
41471;DHT22;27211;51.220;5.308;2024-02-15T12:59:17;20.10;99.90
41471;DHT22;27211;51.220;5.308;2024-02-15T13:01:44;19.90;99.90
41471;DHT22;27211;51.220;5.308;2024-02-15T13:04:24;19.60;99.90
41471;DHT22;27211;51.220;5.308;2024-02-15T13:06:50;19.20;99.90
41471;DHT22;27211;51.220;5.308;2024-02-15T13:09:16;19.30;99.90
41471;DHT22;27211;51.220;5.308;2024-02-15T13:11:41;19.20;99.90
41471;DHT22;27211;51.220;5.308;2024-02-15T13:14:10;19.30;99.90
41471;DHT22;27211;51.220;5.308;2024-02-15T13:16:36;19.10;99.90
41471;DHT22;27211;51.220;5.308;2024-02-15T13:19:02;19.10;99.90
41471;DHT22;27211;51.220;5.308;2024-02-15T13:21:28;19.10;99.90
41471;DHT22;27211;51.220;5.308;2024-02-15T13:23:56;19.90;99.90
41471;DHT22;27211;51.220;5.308;2024-02-15T13:26:21;20.40;99.90
41471;DHT22;27211;51.220;5.308;2024-02-15T13:28:48;20.40;99.90
41471;DHT22;27211;51.220;5.308;2024-02-15T13:31:15;19.90;99.90
41471;DHT22;27211;51.220;5.308;2024-02-15T13:33:40;20.20;99.90
41471;DHT22;27211;51.220;5.308;2024-02-15T13:36:06;20.00;99.90
41471;DHT22;27211;51.220;5.308;2024-02-15T13:38:38;19.50;99.90
41471;DHT22;27211;51.220;5.308;2024-02-15T13:41:04;19.10;99.90
41471;DHT22;27211;51.220;5.308;2024-02-15T13:43:29;19.20;99.90
41471;DHT22;27211;51.220;5.308;2024-02-15T13:45:57;19.10;99.90
41471;DHT22;27211;51.220;5.308;2024-02-15T13:48:23;19.20;99.90
41471;DHT22;27211;51.220;5.308;2024-02-15T13:50:52;19.00;99.90
41471;DHT22;27211;51.220;5.308;2024-02-15T13:53:21;18.90;99.90
41471;DHT22;27211;51.220;5.308;2024-02-15T13:55:47;19.00;99.90
41471;DHT22;27211;51.220;5.308;2024-02-15T13:58:13;19.30;99.90
41471;DHT22;27211;51.220;5.308;2024-02-15T14:00:39;19.10;99.90
41471;DHT22;27211;51.220;5.308;2024-02-15T14:03:07;19.30;99.90
41471;DHT22;27211;51.220;5.308;2024-02-15T14:05:35;19.20;99.90
41471;DHT22;27211;51.220;5.308;2024-02-15T14:08:04;19.10;99.90
41471;DHT22;27211;51.220;5.308;2024-02-15T14:10:36;18.80;99.90
41471;DHT22;27211;51.220;5.308;2024-02-15T14:13:02;18.90;99.90
41471;DHT22;27211;51.220;5.308;2024-02-15T14:15:31;18.80;99.90
41471;DHT22;27211;51.220;5.308;2024-02-15T14:18:05;18.70;99.90
41471;DHT22;27211;51.220;5.308;2024-02-15T14:20:31;18.60;99.90
41471;DHT22;27211;51.220;5.308;2024-02-15T14:22:57;18.60;99.90
41471;DHT22;27211;51.220;5.308;2024-02-15T14:25:23;18.60;99.90
41471;DHT22;27211;51.220;5.308;2024-02-15T14:27:49;18.40;99.90
41471;DHT22;27211;51.220;5.308;2024-02-15T14:30:15;18.40;99.90
41471;DHT22;27211;51.220;5.308;2024-02-15T14:32:59;18.30;99.90
41471;DHT22;27211;51.220;5.308;2024-02-15T14:35:37;18.40;99.90
41471;DHT22;27211;51.220;5.308;2024-02-15T14:38:08;18.50;99.90
41471;DHT22;27211;51.220;5.308;2024-02-15T14:40:44;18.60;99.90
41471;DHT22;27211;51.220;5.308;2024-02-15T14:43:21;18.40;99.90
41471;DHT22;27211;51.220;5.308;2024-02-15T14:45:46;18.30;99.90
41471;DHT22;27211;51.220;5.308;2024-02-15T14:48:13;18.10;99.90
41471;DHT22;27211;51.220;5.308;2024-02-15T14:50:41;18.30;99.90
41471;DHT22;27211;51.220;5.308;2024-02-15T14:53:07;18.30;99.90
41471;DHT22;27211;51.220;5.308;2024-02-15T14:55:33;18.40;99.90
41471;DHT22;27211;51.220;5.308;2024-02-15T14:57:59;18.50;99.90
41471;DHT22;27211;51.220;5.308;2024-02-15T15:00:25;18.50;99.90
41471;DHT22;27211;51.220;5.308;2024-02-15T15:02:52;18.60;99.90
41471;DHT22;27211;51.220;5.308;2024-02-15T15:05:18;18.60;99.90
41471;DHT22;27211;51.220;5.308;2024-02-15T15:08:02;18.60;99.90
41471;DHT22;27211;51.220;5.308;2024-02-15T15:10:51;18.60;99.90
41471;DHT22;27211;51.220;5.308;2024-02-15T15:13:35;18.70;99.90
41471;DHT22;27211;51.220;5.308;2024-02-15T15:16:01;18.60;99.90
41471;DHT22;27211;51.220;5.308;2024-02-15T15:18:30;18.80;99.90
41471;DHT22;27211;51.220;5.308;2024-02-15T15:20:59;18.90;99.90
41471;DHT22;27211;51.220;5.308;2024-02-15T15:23:28;18.90;99.90
41471;DHT22;27211;51.220;5.308;2024-02-15T15:25:57;19.00;99.90
41471;DHT22;27211;51.220;5.308;2024-02-15T15:28:22;19.10;99.90
41471;DHT22;27211;51.220;5.308;2024-02-15T15:30:48;19.10;99.90
41471;DHT22;27211;51.220;5.308;2024-02-15T15:33:16;19.00;99.90
41471;DHT22;27211;51.220;5.308;2024-02-15T15:35:43;19.00;99.90
41471;DHT22;27211;51.220;5.308;2024-02-15T15:38:08;18.80;99.90
41471;DHT22;27211;51.220;5.308;2024-02-15T15:40:34;18.70;99.90
41471;DHT22;27211;51.220;5.308;2024-02-15T15:43:00;18.70;99.90
41471;DHT22;27211;51.220;5.308;2024-02-15T15:45:25;18.50;99.90
41471;DHT22;27211;51.220;5.308;2024-02-15T15:47:51;18.50;99.90
41471;DHT22;27211;51.220;5.308;2024-02-15T15:50:16;18.40;99.90
41471;DHT22;27211;51.220;5.308;2024-02-15T15:52:42;18.20;99.90